Time;durP1;ratioP1;P1;durP2;ratioP2;P2;SDS_P1;SDS_P2;PMS_P1;PMS_P2;Temp;Humidity;BMP_temperature;BMP_pressure;BME280_temperature;BME280_humidity;BME280_pressure;Samples;Min_cycle;Max_cycle;Signal;HPM_P1;HPM_P2
2022/06/15 00:00:32;;;;;;;5.70;3.05;;;15.00;99.90;;;;;;4675310;28;10000645;-83
2022/06/15 00:02:58;;;;;;;8.57;3.55;;;14.90;99.90;;;;;;5022233;28;20421;-82
2022/06/15 00:05:23;;;;;;;7.82;2.97;;;14.90;99.90;;;;;;5025247;28;20053;-82
2022/06/15 00:07:49;;;;;;;6.18;3.22;;;14.90;99.90;;;;;;5023232;28;20489;-83
2022/06/15 00:10:15;;;;;;;7.70;3.60;;;14.90;99.90;;;;;;5025197;28;20099;-83
2022/06/15 00:12:41;;;;;;;7.07;3.40;;;14.90;99.90;;;;;;5014394;28;20034;-82
2022/06/15 00:15:08;;;;;;;8.35;3.50;;;14.90;99.90;;;;;;5017121;28;20028;-83
2022/06/15 00:17:33;;;;;;;8.00;3.42;;;14.80;99.90;;;;;;5024948;28;20043;-83
2022/06/15 00:19:59;;;;;;;8.35;3.70;;;14.80;99.90;;;;;;5021350;28;20481;-83
2022/06/15 00:22:25;;;;;;;10.55;3.67;;;14.80;99.90;;;;;;5022556;28;20037;-83
2022/06/15 00:24:50;;;;;;;5.80;3.40;;;14.80;99.90;;;;;;5028026;28;20049;-82
2022/06/15 00:27:16;;;;;;;5.70;3.15;;;14.80;99.90;;;;;;5026431;28;20018;-83
2022/06/15 00:29:41;;;;;;;8.93;3.38;;;14.80;99.90;;;;;;5016847;28;20898;-83
2022/06/15 00:32:07;;;;;;;7.32;3.60;;;14.80;99.90;;;;;;5017430;28;20053;-83
2022/06/15 00:34:33;;;;;;;8.82;3.85;;;14.70;99.90;;;;;;5022708;28;20271;-83
2022/06/15 00:36:59;;;;;;;8.30;3.17;;;14.70;99.90;;;;;;5023402;28;20048;-83
2022/06/15 00:39:25;;;;;;;7.80;3.50;;;14.70;99.90;;;;;;5019070;28;20034;-83
2022/06/15 00:41:50;;;;;;;8.05;3.58;;;14.70;99.90;;;;;;5024742;28;20021;-83
2022/06/15 00:44:19;;;;;;;6.20;3.42;;;14.70;99.90;;;;;;5023194;28;20113;-83
2022/06/15 00:46:55;;;;;;;5.07;3.13;;;14.70;99.90;;;;;;5021847;28;20026;-83
2022/06/15 00:49:29;;;;;;;5.47;3.42;;;14.60;99.90;;;;;;5024006;28;20036;-83
2022/06/15 00:52:00;;;;;;;5.35;3.30;;;14.60;99.90;;;;;;5024961;28;20560;-83
2022/06/15 00:54:26;;;;;;;5.32;3.30;;;14.60;99.90;;;;;;5023497;28;20114;-82
2022/06/15 00:56:53;;;;;;;8.02;3.67;;;14.60;99.90;;;;;;5019204;28;20026;-83
2022/06/15 00:59:29;;;;;;;10.48;3.80;;;14.50;99.90;;;;;;5022590;28;20036;-83
2022/06/15 01:01:54;;;;;;;6.28;3.58;;;14.50;99.90;;;;;;5022971;28;20056;-83
2022/06/15 01:04:21;;;;;;;8.45;3.60;;;14.50;99.90;;;;;;5013404;28;20449;-82
2022/06/15 01:07:11;;;;;;;5.75;3.83;;;14.40;99.90;;;;;;5022952;28;20482;-83
2022/06/15 01:09:48;;;;;;;6.00;3.65;;;14.40;99.90;;;;;;5016471;28;20038;-83
2022/06/15 01:12:44;;;;;;;7.45;3.83;;;14.40;99.90;;;;;;5017795;28;20030;-83
2022/06/15 01:15:13;;;;;;;9.13;3.40;;;14.40;99.90;;;;;;5020832;28;20053;-82
2022/06/15 01:18:21;;;;;;;6.85;3.90;;;14.40;99.90;;;;;;5022285;28;20382;-83
2022/06/15 01:20:59;;;;;;;6.40;3.70;;;14.30;99.90;;;;;;4962648;28;20031;-82
2022/06/15 01:23:30;;;;;;;6.72;3.83;;;14.30;99.90;;;;;;5015544;28;20053;-82
2022/06/15 01:26:18;;;;;;;6.72;3.50;;;14.30;99.90;;;;;;5015503;28;20044;-82
2022/06/15 01:28:53;;;;;;;7.78;3.22;;;14.30;99.90;;;;;;5024913;28;20032;-82
2022/06/15 01:31:43;;;;;;;7.72;3.42;;;14.20;99.90;;;;;;5026732;28;20030;-83
2022/06/15 01:34:22;;;;;;;6.65;3.40;;;14.20;99.90;;;;;;5019691;28;20547;-82
2022/06/15 01:37:00;;;;;;;5.97;3.47;;;14.20;99.90;;;;;;5016394;28;20362;-82
2022/06/15 01:39:52;;;;;;;5.30;3.58;;;14.20;99.90;;;;;;5015857;28;20029;-82
2022/06/15 01:42:34;;;;;;;8.05;3.67;;;14.20;99.90;;;;;;5018739;28;20029;-83
2022/06/15 01:45:10;;;;;;;10.70;4.22;;;14.20;99.90;;;;;;5014882;28;20044;-82
2022/06/15 01:47:37;;;;;;;10.43;3.58;;;14.10;99.90;;;;;;5016924;28;20037;-83
2022/06/15 01:50:36;;;;;;;5.68;3.40;;;14.10;99.90;;;;;;5016630;28;20029;-82
2022/06/15 01:53:18;;;;;;;8.48;3.38;;;14.10;99.90;;;;;;5020789;28;20033;-83
2022/06/15 01:56:00;;;;;;;7.10;3.30;;;14.10;99.90;;;;;;5017506;28;20021;-82
2022/06/15 01:58:30;;;;;;;7.68;3.42;;;14.00;99.90;;;;;;5020540;28;20429;-82
2022/06/15 02:01:08;;;;;;;6.05;3.28;;;14.00;99.90;;;;;;5017141;28;20056;-83
2022/06/15 02:04:07;;;;;;;6.70;3.72;;;14.00;99.90;;;;;;5018814;28;20069;-82
2022/06/15 02:07:24;;;;;;;8.60;4.00;;;14.00;99.90;;;;;;5015346;28;20030;-83
2022/06/15 02:09:59;;;;;;;5.50;3.20;;;13.90;99.90;;;;;;4959173;28;20092;-82
2022/06/15 02:12:40;;;;;;;7.55;3.55;;;13.90;99.90;;;;;;4962499;28;20026;-83
2022/06/15 02:15:08;;;;;;;4.88;3.78;;;13.90;99.90;;;;;;4998915;28;20069;-82
2022/06/15 02:17:38;;;;;;;6.07;3.60;;;13.80;99.90;;;;;;5017614;28;20029;-82
2022/06/15 02:20:09;;;;;;;6.88;3.75;;;13.80;99.90;;;;;;5021157;28;20092;-82
2022/06/15 02:22:38;;;;;;;6.45;3.67;;;13.80;99.90;;;;;;5020231;28;20056;-82
2022/06/15 02:25:08;;;;;;;9.32;3.92;;;13.70;99.90;;;;;;5026767;28;20515;-82
2022/06/15 02:27:36;;;;;;;7.30;3.38;;;13.60;99.90;;;;;;5022337;28;20033;-82
2022/06/15 02:30:05;;;;;;;7.25;3.85;;;;;;;;;;5020798;28;20104;-83
2022/06/15 02:32:31;;;;;;;6.35;3.50;;;;;;;;;;5016653;28;20777;-82
2022/06/15 02:34:57;;;;;;;5.20;3.10;;;;;;;;;;5019396;28;20077;-82
2022/06/15 02:37:23;;;;;;;6.47;3.45;;;;;;;;;;5023506;28;20096;-82
2022/06/15 02:39:50;;;;;;;5.65;3.40;;;;;;;;;;5014105;28;20028;-82
2022/06/15 02:42:25;;;;;;;8.95;3.58;;;;;;;;;;5016979;28;20057;-82
2022/06/15 02:44:53;;;;;;;7.38;3.85;;;13.40;99.90;;;;;;5009082;28;20057;-82
2022/06/15 02:47:21;;;;;;;5.38;3.30;;;13.40;99.90;;;;;;5019493;28;20084;-82
2022/06/15 02:49:51;;;;;;;7.63;3.85;;;13.30;99.90;;;;;;5017243;28;20037;-82
2022/06/15 02:52:19;;;;;;;7.40;3.80;;;13.10;99.90;;;;;;5014511;28;20036;-82
2022/06/15 02:54:51;;;;;;;5.80;3.72;;;;;;;;;;5020565;28;20030;-82
2022/06/15 02:57:18;;;;;;;6.35;3.40;;;;;;;;;;5021726;28;20053;-82
2022/06/15 02:59:45;;;;;;;8.45;3.83;;;;;;;;;;5021130;28;20422;-82
2022/06/15 03:02:14;;;;;;;8.43;4.22;;;12.70;99.90;;;;;;5024350;28;20136;-81
2022/06/15 03:04:44;;;;;;;8.25;4.25;;;12.60;99.90;;;;;;5028191;28;20556;-81
2022/06/15 03:07:11;;;;;;;9.80;4.28;;;12.60;99.90;;;;;;5026920;28;20076;-81
2022/06/15 03:09:38;;;;;;;10.30;4.25;;;12.50;99.90;;;;;;5018482;28;20044;-81
2022/06/15 03:12:05;;;;;;;10.23;4.93;;;12.50;99.90;;;;;;5017649;28;20441;-81
2022/06/15 03:14:31;;;;;;;6.60;4.57;;;12.40;99.90;;;;;;5026578;28;20041;-81
2022/06/15 03:16:58;;;;;;;7.82;4.30;;;12.40;99.90;;;;;;5030684;28;20025;-82
2022/06/15 03:19:23;;;;;;;8.00;4.50;;;12.50;99.90;;;;;;5024345;28;20540;-82
2022/06/15 03:21:49;;;;;;;7.20;4.28;;;12.50;99.90;;;;;;5018075;28;20062;-82
2022/06/15 03:24:15;;;;;;;6.35;3.80;;;12.70;99.90;;;;;;5027144;28;20037;-82
2022/06/15 03:26:40;;;;;;;7.82;4.10;;;12.80;99.90;;;;;;5022516;28;20030;-81
2022/06/15 03:29:07;;;;;;;11.38;4.47;;;12.80;99.90;;;;;;5023527;28;20425;-81
2022/06/15 03:31:33;;;;;;;9.70;4.15;;;12.90;99.90;;;;;;5023142;28;20125;-81
2022/06/15 03:33:58;;;;;;;9.70;3.90;;;13.00;99.90;;;;;;5028708;28;20041;-82
2022/06/15 03:36:24;;;;;;;7.03;3.72;;;13.10;99.90;;;;;;5019566;28;20027;-81
2022/06/15 03:38:49;;;;;;;8.10;3.55;;;13.10;99.90;;;;;;5027407;28;20433;-81
2022/06/15 03:41:16;;;;;;;9.93;3.95;;;13.20;99.90;;;;;;5023294;28;20033;-82
2022/06/15 03:43:43;;;;;;;6.82;3.40;;;13.30;99.90;;;;;;5020946;28;20778;-81
2022/06/15 03:46:10;;;;;;;5.93;3.05;;;13.30;99.90;;;;;;5019321;28;20053;-81
2022/06/15 03:48:35;;;;;;;7.13;3.80;;;13.40;99.90;;;;;;5028688;28;20039;-82
2022/06/15 03:51:01;;;;;;;7.05;3.80;;;13.30;99.90;;;;;;5022811;28;20477;-81
2022/06/15 03:53:26;;;;;;;6.03;3.35;;;13.30;99.90;;;;;;5024289;28;20029;-81
2022/06/15 03:55:52;;;;;;;6.70;3.55;;;13.30;99.90;;;;;;5021250;28;20029;-81
2022/06/15 03:58:19;;;;;;;8.35;3.42;;;13.40;99.90;;;;;;5027778;28;20021;-81
2022/06/15 04:00:45;;;;;;;7.05;3.20;;;13.40;99.90;;;;;;5022273;28;20033;-81
2022/06/15 04:03:11;;;;;;;5.93;3.30;;;13.50;99.90;;;;;;5018368;28;20084;-81
2022/06/15 04:05:41;;;;;;;7.68;3.85;;;13.60;99.90;;;;;;5022853;28;20448;-81
2022/06/15 04:10:56;;;;;;;6.13;3.75;;;13.60;99.90;;;;;;5018922;28;20517;-81
2022/06/15 04:13:21;;;;;;;7.63;3.88;;;14.20;99.90;;;;;;5016176;28;20030;-81
2022/06/15 04:15:48;;;;;;;5.28;3.30;;;15.70;99.90;;;;;;5015368;28;20022;-81
2022/06/15 04:18:14;;;;;;;5.90;3.10;;;17.80;99.90;;;;;;5009921;28;20058;-82
2022/06/15 04:20:40;;;;;;;6.13;3.45;;;19.80;99.90;;;;;;5025436;28;20067;-82
2022/06/15 04:23:07;;;;;;;7.80;3.70;;;21.20;98.10;;;;;;5018720;28;20041;-81
2022/06/15 04:25:37;;;;;;;5.35;3.20;;;21.90;94.80;;;;;;5020155;28;20033;-81
2022/06/15 04:28:04;;;;;;;7.50;3.28;;;21.70;93.60;;;;;;5018161;28;20469;-82
2022/06/15 04:30:30;;;;;;;5.30;2.95;;;21.10;93.80;;;;;;5020455;28;23217;-81
2022/06/15 04:32:56;;;;;;;5.72;2.85;;;20.40;94.30;;;;;;5023589;28;20039;-81
2022/06/15 04:35:22;;;;;;;5.75;3.13;;;19.70;95.00;;;;;;5016776;28;20029;-82
2022/06/15 04:37:48;;;;;;;5.30;3.20;;;18.90;96.30;;;;;;5018922;28;20429;-81
2022/06/15 04:40:14;;;;;;;4.25;2.95;;;18.20;97.70;;;;;;5017298;28;20025;-82
2022/06/15 04:42:41;;;;;;;5.47;3.17;;;17.60;99.30;;;;;;5026190;28;20048;-81
2022/06/15 04:45:08;;;;;;;5.68;3.10;;;17.20;99.90;;;;;;5021633;28;20712;-82
2022/06/15 04:47:33;;;;;;;6.20;3.40;;;16.90;99.90;;;;;;5020990;28;20076;-82
2022/06/15 04:49:59;;;;;;;6.60;3.00;;;16.70;99.90;;;;;;5012424;28;20033;-84
2022/06/15 04:52:24;;;;;;;4.20;3.40;;;16.60;99.90;;;;;;5021316;28;20495;-82
2022/06/15 04:54:50;;;;;;;8.68;3.17;;;16.50;99.90;;;;;;5022324;28;20036;-82
2022/06/15 04:57:16;;;;;;;6.90;3.30;;;16.40;99.90;;;;;;5025512;28;20030;-82
2022/06/15 04:59:42;;;;;;;7.60;3.40;;;16.40;99.90;;;;;;5016580;28;20548;-83
2022/06/15 05:02:09;;;;;;;8.55;3.72;;;16.40;99.90;;;;;;5015156;28;20034;-82
2022/06/15 05:04:34;;;;;;;6.75;3.50;;;16.50;99.90;;;;;;5015309;28;20026;-82
2022/06/15 05:07:00;;;;;;;10.88;3.83;;;16.60;99.90;;;;;;5013861;28;20037;-82
2022/06/15 05:09:26;;;;;;;8.45;3.60;;;16.80;99.90;;;;;;5022014;28;20033;-82
2022/06/15 05:11:51;;;;;;;4.95;3.05;;;17.00;99.90;;;;;;5019056;28;20088;-82
2022/06/15 05:14:17;;;;;;;6.72;3.35;;;17.20;99.90;;;;;;5027046;28;20504;-83
2022/06/15 05:16:43;;;;;;;7.25;3.17;;;17.30;99.90;;;;;;5027804;28;20678;-82
2022/06/15 05:19:09;;;;;;;6.72;3.28;;;17.40;99.90;;;;;;5024742;28;20624;-82
2022/06/15 05:21:42;;;;;;;4.68;3.30;;;17.40;99.90;;;;;;5026793;28;20053;-83
2022/06/15 05:24:09;;;;;;;9.60;3.42;;;17.60;99.90;;;;;;5021971;28;20029;-83
2022/06/15 05:26:34;;;;;;;9.38;3.70;;;17.80;99.90;;;;;;5011438;28;20482;-83
2022/06/15 05:29:00;;;;;;;9.70;3.88;;;18.10;99.90;;;;;;5021760;28;20029;-83
2022/06/15 05:31:26;;;;;;;6.43;3.60;;;18.30;99.90;;;;;;5013813;28;20430;-84
2022/06/15 05:33:56;;;;;;;7.35;3.60;;;18.50;99.90;;;;;;5021792;28;20053;-84
2022/06/15 05:36:28;;;;;;;8.02;3.53;;;18.80;99.90;;;;;;5020419;28;20033;-84
2022/06/15 05:38:54;;;;;;;5.85;3.30;;;19.00;99.90;;;;;;5012243;28;20033;-84
2022/06/15 05:41:20;;;;;;;9.18;4.00;;;19.30;99.90;;;;;;5025067;28;20037;-84
2022/06/15 05:43:52;;;;;;;5.65;3.90;;;19.40;99.90;;;;;;5016996;28;20045;-84
2022/06/15 05:46:26;;;;;;;6.18;3.88;;;19.50;99.90;;;;;;5023298;28;20104;-84
2022/06/15 05:48:52;;;;;;;9.95;3.88;;;19.60;99.90;;;;;;5023822;28;20406;-84
2022/06/15 05:51:17;;;;;;;6.88;3.45;;;19.70;99.90;;;;;;5021896;28;20104;-84
2022/06/15 05:53:43;;;;;;;7.65;3.65;;;19.80;99.90;;;;;;5023301;28;20661;-84
2022/06/15 05:56:08;;;;;;;8.82;3.28;;;19.80;99.90;;;;;;5027196;28;20029;-84
2022/06/15 05:58:34;;;;;;;9.48;3.72;;;19.80;99.90;;;;;;5022480;28;20397;-83
2022/06/15 06:01:12;;;;;;;7.10;3.38;;;19.80;99.90;;;;;;5015085;28;20041;-82
2022/06/15 06:03:38;;;;;;;6.20;3.20;;;19.80;99.90;;;;;;5022576;28;20037;-83
2022/06/15 06:06:04;;;;;;;8.07;3.45;;;19.80;99.90;;;;;;5026663;28;20538;-82
2022/06/15 06:08:31;;;;;;;8.07;3.47;;;19.80;99.90;;;;;;5025309;28;20044;-82
2022/06/15 06:10:57;;;;;;;10.20;4.30;;;19.90;99.90;;;;;;5025013;28;20088;-83
2022/06/15 06:13:22;;;;;;;6.47;3.45;;;19.90;99.90;;;;;;5021833;28;20386;-82
2022/06/15 06:15:48;;;;;;;8.07;3.53;;;20.00;99.90;;;;;;5022313;28;20022;-83
2022/06/15 06:18:13;;;;;;;10.30;4.03;;;20.00;99.80;;;;;;5014505;28;20045;-82
2022/06/15 06:20:39;;;;;;;8.18;3.65;;;20.10;98.60;;;;;;5021870;28;20032;-82
2022/06/15 06:23:05;;;;;;;4.53;2.92;;;20.20;98.40;;;;;;5027551;28;20455;-83
2022/06/15 06:25:30;;;;;;;8.60;3.25;;;20.30;97.80;;;;;;5024237;28;20028;-83
2022/06/15 06:27:56;;;;;;;7.60;3.08;;;20.40;96.60;;;;;;5027089;28;20033;-83
2022/06/15 06:30:22;;;;;;;4.88;2.90;;;20.50;96.30;;;;;;5024780;28;20671;-82
2022/06/15 06:32:49;;;;;;;6.80;2.90;;;20.60;95.50;;;;;;5019039;28;20030;-83
2022/06/15 06:35:15;;;;;;;3.67;2.13;;;20.70;95.40;;;;;;5021332;28;20478;-82
2022/06/15 06:37:41;;;;;;;7.82;3.03;;;20.80;94.70;;;;;;5022346;28;20030;-83
2022/06/15 06:40:12;;;;;;;5.03;2.65;;;20.90;94.10;;;;;;5023862;28;20515;-80
2022/06/15 06:42:37;;;;;;;5.55;3.20;;;21.00;93.90;;;;;;5014255;28;20042;-82
2022/06/15 06:45:03;;;;;;;8.10;2.90;;;21.20;93.60;;;;;;5021009;28;20017;-82
2022/06/15 06:47:29;;;;;;;7.38;2.72;;;21.30;92.80;;;;;;5038453;28;20026;-81
2022/06/15 06:49:55;;;;;;;7.93;2.88;;;21.40;92.40;;;;;;5019855;28;20045;-82
2022/06/15 06:52:20;;;;;;;5.93;2.90;;;21.50;92.10;;;;;;5024476;28;20079;-81
2022/06/15 06:54:46;;;;;;;4.80;2.70;;;21.60;91.80;;;;;;5025300;28;20160;-82
2022/06/15 06:57:12;;;;;;;5.10;2.25;;;21.70;91.40;;;;;;5025196;28;20435;-82
2022/06/15 06:59:38;;;;;;;8.68;2.60;;;21.80;91.40;;;;;;5024651;28;20022;-82
2022/06/15 07:02:03;;;;;;;10.57;3.33;;;22.00;91.00;;;;;;5023740;28;20041;-77
2022/06/15 07:04:30;;;;;;;7.60;2.53;;;22.20;91.00;;;;;;5015185;28;20083;-74
2022/06/15 07:06:57;;;;;;;7.50;2.40;;;22.40;90.00;;;;;;5023203;28;20525;-72
2022/06/15 07:09:23;;;;;;;7.97;2.50;;;22.50;90.10;;;;;;5016532;28;20555;-72
2022/06/15 07:11:49;;;;;;;5.82;2.40;;;22.70;89.50;;;;;;5021392;28;20029;-72
2022/06/15 07:14:14;;;;;;;6.25;2.28;;;22.90;88.10;;;;;;5025388;28;20026;-72
2022/06/15 07:16:42;;;;;;;7.30;2.50;;;22.80;88.00;;;;;;5018160;28;20030;-72
2022/06/15 07:19:07;;;;;;;5.53;2.65;;;22.80;87.50;;;;;;5021890;28;20026;-72
2022/06/15 07:21:34;;;;;;;9.40;2.50;;;22.90;89.60;;;;;;5012556;28;20040;-72
2022/06/15 07:24:00;;;;;;;5.47;2.35;;;23.00;88.80;;;;;;5019866;28;20034;-72
2022/06/15 07:26:42;;;;;;;8.00;2.60;;;23.10;86.80;;;;;;5017573;28;20112;-72
2022/06/15 07:29:09;;;;;;;5.30;2.10;;;22.90;85.00;;;;;;5021850;28;20031;-72
2022/06/15 07:31:40;;;;;;;6.30;2.00;;;23.00;86.80;;;;;;5024665;28;20034;-72
2022/06/15 07:34:08;;;;;;;4.75;1.60;;;23.10;84.40;;;;;;5026855;28;20045;-72
2022/06/15 07:36:35;;;;;;;7.22;2.13;;;23.20;84.30;;;;;;5023940;28;20026;-72
2022/06/15 07:39:01;;;;;;;4.85;2.00;;;23.30;83.90;;;;;;5017712;28;20129;-72
2022/06/15 07:41:27;;;;;;;6.70;1.70;;;23.30;83.20;;;;;;5011025;28;20025;-72
2022/06/15 07:43:54;;;;;;;6.28;1.80;;;23.40;84.10;;;;;;5023619;28;20370;-72
2022/06/15 07:46:20;;;;;;;5.75;1.98;;;23.50;82.10;;;;;;5013132;28;20025;-72
2022/06/15 07:51:34;;;;;;;5.50;1.60;;;23.60;81.50;;;;;;5025877;28;20083;-72
2022/06/15 07:54:03;;;;;;;6.60;1.65;;;23.60;80.90;;;;;;5015302;28;20080;-72
2022/06/15 07:56:29;;;;;;;7.63;1.70;;;23.70;81.70;;;;;;5010917;28;20025;-72
2022/06/15 07:58:55;;;;;;;4.75;1.60;;;23.80;80.50;;;;;;5024624;28;20014;-72
2022/06/15 08:01:22;;;;;;;5.05;1.92;;;23.80;80.40;;;;;;5017791;28;20586;-72
2022/06/15 08:03:49;;;;;;;3.90;1.50;;;23.80;81.00;;;;;;5025879;28;20051;-72
2022/06/15 08:06:16;;;;;;;3.72;1.60;;;23.80;80.20;;;;;;5015608;28;20022;-72
2022/06/15 08:08:42;;;;;;;5.72;1.75;;;24.00;79.70;;;;;;5013415;28;20041;-72
2022/06/15 08:11:08;;;;;;;3.92;1.60;;;23.90;99.90;;;;;;5029940;28;20025;-72
2022/06/15 08:13:34;;;;;;;8.68;2.03;;;24.10;94.00;;;;;;5018235;28;20041;-72
2022/06/15 08:16:00;;;;;;;4.72;1.83;;;24.20;87.60;;;;;;5010385;28;20480;-72
2022/06/15 08:18:30;;;;;;;3.22;1.50;;;24.40;86.90;;;;;;5020853;28;20126;-71
2022/06/15 08:20:57;;;;;;;3.30;1.63;;;24.50;91.60;;;;;;5027745;28;20035;-71
2022/06/15 08:23:27;;;;;;;4.38;1.50;;;24.50;89.60;;;;;;5021745;28;20144;-71
2022/06/15 08:25:57;;;;;;;6.63;1.85;;;24.60;87.20;;;;;;5024976;28;20415;-71
2022/06/15 08:28:27;;;;;;;4.10;1.50;;;24.70;86.70;;;;;;5022266;28;20025;-71
2022/06/15 08:30:54;;;;;;;7.28;1.65;;;24.70;85.40;;;;;;5023458;28;20137;-71
2022/06/15 08:33:20;;;;;;;3.33;1.40;;;24.80;88.40;;;;;;5026467;28;20041;-73
2022/06/15 08:35:47;;;;;;;3.83;1.30;;;24.80;90.10;;;;;;5018826;28;20111;-73
2022/06/15 08:38:18;;;;;;;7.18;1.50;;;25.00;89.60;;;;;;5007090;28;20034;-73
2022/06/15 08:41:06;;;;;;;5.45;1.50;;;24.90;88.40;;;;;;5022378;28;20520;-74
2022/06/15 08:44:14;;;;;;;5.93;1.80;;;25.00;86.10;;;;;;5007852;28;20109;-74
2022/06/15 08:46:54;;;;;;;16.67;2.13;;;25.30;79.10;;;;;;4998112;28;20694;-74
2022/06/15 08:49:41;;;;;;;4.90;1.48;;;25.40;74.50;;;;;;5016462;28;20029;-74
2022/06/15 08:52:33;;;;;;;5.32;1.25;;;25.60;73.50;;;;;;5013068;28;20116;-74
2022/06/15 08:55:18;;;;;;;1.70;1.10;;;25.70;69.10;;;;;;5009367;28;20444;-74
2022/06/15 08:58:00;;;;;;;2.75;1.20;;;25.70;66.70;;;;;;5019367;28;20048;-74
2022/06/15 09:00:31;;;;;;;3.67;1.30;;;25.70;64.90;;;;;;5025641;28;20021;-74
2022/06/15 09:03:04;;;;;;;4.85;1.30;;;25.80;65.30;;;;;;5017638;28;20076;-74
2022/06/15 09:05:58;;;;;;;4.03;1.30;;;25.80;67.40;;;;;;5009104;28;20045;-74
2022/06/15 09:08:43;;;;;;;3.20;1.40;;;25.80;69.30;;;;;;4992168;28;20048;-74
2022/06/15 09:11:27;;;;;;;4.70;1.30;;;25.90;70.00;;;;;;5023002;28;20042;-74
2022/06/15 09:14:07;;;;;;;4.65;1.40;;;26.00;67.40;;;;;;5041594;28;20029;-73
2022/06/15 09:16:47;;;;;;;5.47;1.50;;;26.00;67.00;;;;;;5024213;28;20021;-73
2022/06/15 09:19:25;;;;;;;5.50;1.42;;;26.10;66.50;;;;;;5024789;28;20033;-73
2022/06/15 09:22:01;;;;;;;6.00;1.27;;;26.00;64.30;;;;;;5026520;28;20504;-73
2022/06/15 09:24:47;;;;;;;1.55;1.00;;;26.10;64.60;;;;;;5010335;28;20072;-73
2022/06/15 09:27:21;;;;;;;4.43;1.60;;;26.10;62.50;;;;;;5019254;28;20277;-73
2022/06/15 09:30:00;;;;;;;2.38;1.30;;;26.20;62.70;;;;;;5011553;28;20502;-74
2022/06/15 09:32:32;;;;;;;3.28;1.30;;;26.30;63.00;;;;;;5008324;28;20030;-74
2022/06/15 09:35:20;;;;;;;4.85;1.42;;;26.40;62.10;;;;;;5026696;28;20097;-74
2022/06/15 09:37:50;;;;;;;5.72;1.30;;;26.40;61.00;;;;;;5021914;28;20076;-73
2022/06/15 09:40:17;;;;;;;3.80;1.20;;;26.40;58.50;;;;;;5016133;28;20037;-73
2022/06/15 09:43:11;;;;;;;4.50;1.20;;;26.40;58.80;;;;;;5034126;28;20393;-74
2022/06/15 09:45:49;;;;;;;3.92;1.55;;;26.30;60.90;;;;;;5009512;28;20045;-74
2022/06/15 09:48:26;;;;;;;2.92;1.30;;;26.40;60.20;;;;;;5023314;28;20393;-74
2022/06/15 09:50:56;;;;;;;4.13;1.20;;;;;;;;;;5014424;28;20505;-71
2022/06/15 09:53:44;;;;;;;5.25;1.10;;;26.40;58.10;;;;;;5016682;28;20036;-71
2022/06/15 09:56:13;;;;;;;4.85;1.25;;;26.40;56.70;;;;;;5019026;28;20132;-72
2022/06/15 09:58:51;;;;;;;4.38;1.08;;;;;;;;;;5016603;28;20028;-71
2022/06/15 10:01:18;;;;;;;3.42;1.45;;;26.50;55.60;;;;;;5017497;28;20017;-71
2022/06/15 10:03:48;;;;;;;6.50;1.30;;;26.60;55.60;;;;;;5020379;28;20812;-71
2022/06/15 10:06:30;;;;;;;3.88;1.27;;;26.60;56.20;;;;;;5024242;28;20087;-71
2022/06/15 10:08:57;;;;;;;4.50;1.13;;;26.60;57.00;;;;;;5024137;28;20025;-72
2022/06/15 10:11:53;;;;;;;4.28;1.15;;;26.70;56.80;;;;;;5023996;28;20489;-72
2022/06/15 10:14:34;;;;;;;3.95;1.13;;;26.80;57.30;;;;;;5016509;28;20095;-72
2022/06/15 10:17:05;;;;;;;4.07;1.20;;;26.80;53.40;;;;;;5024482;28;20048;-71
2022/06/15 10:19:34;;;;;;;2.75;1.10;;;26.90;53.00;;;;;;5010433;28;20022;-71
2022/06/15 10:22:03;;;;;;;1.00;1.00;;;27.00;52.80;;;;;;5022236;28;20042;-69
2022/06/15 10:24:35;;;;;;;3.63;1.05;;;27.00;54.40;;;;;;5024309;28;20082;-68
2022/06/15 10:27:16;;;;;;;1.45;1.10;;;27.00;52.70;;;;;;5016588;28;20116;-68
2022/06/15 10:29:43;;;;;;;3.53;1.10;;;27.00;52.50;;;;;;5022876;28;20092;-69
2022/06/15 10:32:09;;;;;;;4.40;1.00;;;27.00;51.10;;;;;;5016529;28;20095;-69
2022/06/15 10:34:36;;;;;;;2.17;1.08;;;26.90;50.70;;;;;;5020446;28;20058;-69
2022/06/15 10:37:17;;;;;;;3.00;0.88;;;26.90;50.60;;;;;;5006679;28;20049;-69
2022/06/15 10:39:48;;;;;;;2.58;1.00;;;26.80;48.60;;;;;;5010575;28;20036;-69
2022/06/15 10:42:21;;;;;;;2.53;1.10;;;26.90;50.70;;;;;;5019445;28;20707;-69
2022/06/15 10:45:22;;;;;;;3.42;1.15;;;27.10;50.20;;;;;;5025926;28;20037;-69
2022/06/15 10:48:11;;;;;;;1.83;1.10;;;27.10;52.20;;;;;;5000867;28;20319;-68
2022/06/15 10:50:46;;;;;;;2.72;1.20;;;27.30;51.90;;;;;;5020680;28;20033;-69
2022/06/15 10:53:34;;;;;;;2.85;1.08;;;27.20;48.80;;;;;;5019940;28;20038;-69
2022/06/15 11:04:32;;;;;;;3.83;1.30;;;27.40;47.50;;;;;;5023105;28;20563;-69
2022/06/15 11:07:04;;;;;;;2.83;1.33;;;27.50;49.10;;;;;;5013294;28;20026;-68
2022/06/15 11:09:35;;;;;;;3.63;1.30;;;27.50;50.70;;;;;;5017647;28;20099;-69
2022/06/15 11:12:07;;;;;;;3.75;1.30;;;27.60;48.60;;;;;;5025575;28;20033;-69
2022/06/15 11:15:00;;;;;;;1.20;1.10;;;27.70;48.60;;;;;;5023830;28;20065;-69
2022/06/15 11:20:48;;;;;;;3.90;2.03;;;27.90;49.40;;;;;;5018213;28;20045;-69
2022/06/15 11:23:22;;;;;;;;;;;27.90;46.80;;;;;;5017980;28;20049;-68
2022/06/15 11:25:55;;;;;;;2.63;1.77;;;27.90;46.70;;;;;;5015017;28;19909;-69
2022/06/15 11:28:27;;;;;;;3.85;1.60;;;27.90;47.20;;;;;;5020122;28;20037;-69
2022/06/15 11:31:02;;;;;;;2.35;1.65;;;27.90;48.30;;;;;;5017504;28;20033;-69
2022/06/15 11:33:41;;;;;;;3.15;1.85;;;28.10;48.50;;;;;;5018433;28;20068;-69
2022/06/15 11:36:29;;;;;;;3.30;1.73;;;28.20;48.40;;;;;;5012652;28;21336;-69
2022/06/15 11:39:13;;;;;;;2.30;1.60;;;28.40;46.90;;;;;;5022318;28;20120;-69
2022/06/15 11:41:47;;;;;;;3.50;1.73;;;28.70;48.50;;;;;;5020083;28;20022;-68
2022/06/15 11:44:18;;;;;;;3.17;1.73;;;28.80;48.30;;;;;;5008073;28;20120;-69
2022/06/15 11:46:55;;;;;;;4.30;1.60;;;29.00;48.00;;;;;;5024533;28;20025;-72
2022/06/15 11:49:35;;;;;;;2.25;1.40;;;29.20;48.40;;;;;;5016157;28;20055;-72
2022/06/15 11:52:23;;;;;;;2.17;1.50;;;29.30;48.50;;;;;;5018074;28;20414;-71
2022/06/15 11:55:08;;;;;;;4.85;2.10;;;29.40;47.80;;;;;;5025381;28;20583;-71
2022/06/15 11:57:49;;;;;;;3.03;2.00;;;29.30;45.30;;;;;;5029865;28;20037;-71
2022/06/15 12:00:20;;;;;;;5.43;1.95;;;28.90;46.00;;;;;;5025607;28;20182;-71
2022/06/15 12:03:01;;;;;;;3.42;1.70;;;28.80;47.50;;;;;;5019791;28;20190;-71
2022/06/15 12:05:48;;;;;;;4.38;1.58;;;29.00;48.40;;;;;;5024496;28;20030;-71
2022/06/15 12:08:32;;;;;;;3.53;1.63;;;29.10;49.10;;;;;;5013045;28;20042;-71
2022/06/15 12:12:37;;;;;;;3.55;1.60;;;29.20;47.60;;;;;;5018647;28;20052;-71
2022/06/15 12:13:59;;;;;;;2.65;1.65;;;29.20;48.00;;;;;;5015411;28;20025;-71
2022/06/15 12:16:38;;;;;;;3.03;1.50;;;29.30;46.10;;;;;;5020464;28;20026;-71
2022/06/15 12:19:25;;;;;;;1.98;1.50;;;29.40;46.40;;;;;;5018425;28;20029;-71
2022/06/15 12:22:01;;;;;;;2.80;1.65;;;29.50;46.60;;;;;;5027811;28;20026;-71
2022/06/15 12:24:44;;;;;;;4.15;1.70;;;29.70;47.70;;;;;;5017149;28;20509;-71
2022/06/15 12:27:15;;;;;;;7.53;1.60;;;29.80;46.20;;;;;;5023937;28;20041;-71
2022/06/15 12:29:50;;;;;;;3.58;1.65;;;29.90;45.90;;;;;;5022084;28;20041;-71
2022/06/15 12:32:45;;;;;;;4.93;1.80;;;29.90;45.50;;;;;;5009879;28;20030;-71
2022/06/15 12:35:21;;;;;;;2.22;1.70;;;29.90;45.20;;;;;;4995352;28;20505;-71
2022/06/15 12:37:57;;;;;;;4.07;2.00;;;29.80;45.00;;;;;;5027946;28;20034;-71
2022/06/15 12:40:34;;;;;;;5.50;2.00;;;29.70;45.30;;;;;;5026062;28;20108;-71
2022/06/15 12:43:26;;;;;;;4.88;1.80;;;29.70;45.50;;;;;;5025608;28;20025;-71
2022/06/15 12:46:14;;;;;;;3.28;1.65;;;29.80;46.60;;;;;;5011470;28;20554;-71
2022/06/15 12:49:14;;;;;;;2.78;1.60;;;29.90;45.00;;;;;;5024233;28;20282;-71
2022/06/15 12:52:22;;;;;;;5.38;1.70;;;30.00;45.70;;;;;;5023299;28;20112;-71
2022/06/15 12:55:17;;;;;;;6.35;2.22;;;30.00;45.70;;;;;;4987282;28;20037;-71
2022/06/15 12:58:04;;;;;;;3.10;1.90;;;29.90;45.40;;;;;;5027554;28;20061;-68
2022/06/15 13:00:36;;;;;;;3.80;1.77;;;30.00;45.40;;;;;;5017100;28;20037;-69
2022/06/15 13:03:01;;;;;;;6.50;1.98;;;30.10;48.40;;;;;;5021675;28;20038;-68
2022/06/15 13:05:35;;;;;;;4.45;1.67;;;30.10;48.30;;;;;;5020100;28;20063;-69
2022/06/15 13:08:25;;;;;;;2.80;1.70;;;30.20;47.60;;;;;;5020182;28;20513;-69
2022/06/15 13:10:53;;;;;;;3.90;1.70;;;30.20;46.80;;;;;;5021127;28;20049;-68
2022/06/15 13:13:33;;;;;;;3.33;1.50;;;30.30;45.00;;;;;;5025871;28;20054;-69
2022/06/15 13:16:08;;;;;;;4.95;2.20;;;30.40;45.20;;;;;;5024133;28;20021;-68
2022/06/15 13:18:53;;;;;;;4.65;2.00;;;30.40;45.10;;;;;;5024865;28;20416;-68
2022/06/15 13:21:25;;;;;;;6.75;1.83;;;30.60;45.10;;;;;;5022439;28;20128;-68
2022/06/15 13:23:51;;;;;;;3.33;1.80;;;30.80;47.20;;;;;;5025803;28;20125;-69
2022/06/15 13:26:23;;;;;;;3.58;1.80;;;30.80;45.70;;;;;;5020740;28;20433;-69
2022/06/15 13:28:58;;;;;;;2.80;1.60;;;30.80;45.30;;;;;;5019816;28;20493;-68
2022/06/15 13:31:43;;;;;;;3.28;1.70;;;30.90;45.00;;;;;;5007860;28;20436;-68
2022/06/15 13:34:11;;;;;;;5.97;1.90;;;30.80;44.60;;;;;;5027803;28;20072;-68